| time (UTC) | temp F | wind direction | speed MPH | gust MPH | rain 1hr in | rain 24hr in | rain mn in | humidity % | barometer mb |
| 20260504081945 | 57 | 348 | 3.0 | 3.0 | 0.00 | 0.00 | 0.00 | 54 | 1014.0 |
| 20260504081442 | 56 | 246 | 3.0 | 3.0 | 0.00 | 0.00 | 0.00 | 54 | 1014.0 |
| 20260504080938 | 56 | 318 | 0.0 | 0.0 | 0.00 | 0.00 | 0.00 | 55 | 1014.0 |
| 20260504080435 | 56 | 260 | 2.0 | 2.0 | 0.00 | 0.00 | 0.00 | 54 | 1013.9 |
| 20260504070403 | 57 | 308 | 1.0 | 2.0 | 0.00 | 0.00 | 0.00 | 57 | 1014.1 |
| 20260504050750 | 55 | 291 | 3.0 | 5.0 | 0.00 | 0.00 | 0.00 | 55 | 1015.0 |
| 20260504050247 | 55 | 322 | 1.0 | 2.0 | 0.00 | 0.00 | 0.00 | 55 | 1014.8 |
| 20260504045745 | 55 | 322 | 0.0 | 1.0 | 0.00 | 0.00 | 0.00 | 56 | 1015.0 |
| 20260504045239 | 55 | 319 | 1.0 | 1.0 | 0.00 | 0.00 | 0.00 | 56 | 1014.9 |
| 20260504044737 | 55 | 340 | 2.0 | 3.0 | 0.00 | 0.00 | 0.00 | 56 | 1014.9 |
| 20260504044234 | 55 | 227 | 2.0 | 2.0 | 0.00 | 0.00 | 0.00 | 56 | 1015.2 |
| 20260504043731 | 55 | 330 | 2.0 | 2.0 | 0.00 | 0.00 | 0.00 | 56 | 1015.1 |
| 20260504043228 | 55 | 311 | 1.0 | 2.0 | 0.00 | 0.00 | 0.00 | 56 | 1014.9 |
| 20260504042726 | 55 | 307 | 1.0 | 2.0 | 0.00 | 0.00 | 0.00 | 56 | 1015.0 |
| 20260504042222 | 55 | 353 | 3.0 | 3.0 | 0.00 | 0.00 | 0.00 | 57 | 1015.0 |
| 20260504041718 | 55 | 299 | 1.0 | 1.0 | 0.00 | 0.00 | 0.00 | 56 | 1015.0 |
| 20260504041214 | 55 | 317 | 2.0 | 3.0 | 0.00 | 0.00 | 0.00 | 56 | 1015.1 |
| 20260504040711 | 55 | 322 | 2.0 | 2.0 | 0.00 | 0.00 | 0.00 | 56 | 1015.0 |
| 20260504040208 | 56 | 303 | 2.0 | 2.0 | 0.00 | 0.00 | 0.00 | 55 | 1015.1 |
| 20260504035704 | 56 | 313 | 1.0 | 2.0 | 0.00 | 0.00 | 0.00 | 54 | 1015.1 |
| 20260504035202 | 56 | 311 | 3.0 | 3.0 | 0.00 | 0.00 | 0.00 | 55 | 1014.9 |
| 20260504034659 | 55 | 218 | 2.0 | 2.0 | 0.00 | 0.00 | 0.00 | 56 | 1015.0 |
| 20260504034156 | 55 | 29 | 1.0 | 1.0 | 0.00 | 0.00 | 0.00 | 57 | 1015.1 |
| 20260504033654 | 55 | 266 | 1.0 | 2.0 | 0.00 | 0.00 | 0.00 | 58 | 1015.2 |
| 20260504033151 | 55 | 308 | 1.0 | 2.0 | 0.00 | 0.00 | 0.00 | 57 | 1015.2 |
| 20260504032647 | 55 | 256 | 3.0 | 3.0 | 0.00 | 0.00 | 0.00 | 57 | 1015.3 |
| 20260504032145 | 55 | 217 | 1.0 | 1.0 | 0.00 | 0.00 | 0.00 | 56 | 1015.0 |
| 20260504031642 | 56 | 297 | 2.0 | 3.0 | 0.00 | 0.00 | 0.00 | 56 | 1015.5 |
| 20260504031138 | 56 | 255 | 1.0 | 1.0 | 0.00 | 0.00 | 0.00 | 54 | 1015.4 |
| 20260504030634 | 57 | 248 | 3.0 | 3.0 | 0.00 | 0.00 | 0.00 | 54 | 1015.3 |
| 20260504030131 | 57 | 356 | 2.0 | 3.0 | 0.00 | 0.00 | 0.00 | 53 | 1014.9 |
| 20260504025628 | 57 | 13 | 2.0 | 3.0 | 0.00 | 0.00 | 0.00 | 53 | 1014.9 |
| 20260504025125 | 57 | 211 | 4.0 | 6.0 | 0.00 | 0.00 | 0.00 | 53 | 1015.1 |
| 20260504024622 | 57 | 234 | 1.0 | 1.0 | 0.00 | 0.00 | 0.00 | 54 | 1015.1 |
| 20260504024119 | 57 | 110 | 2.0 | 3.0 | 0.00 | 0.00 | 0.00 | 53 | 1015.1 |
| 20260504023615 | 57 | 282 | 3.0 | 3.0 | 0.00 | 0.00 | 0.00 | 52 | 1015.1 |
| 20260504023111 | 57 | 326 | 3.0 | 5.0 | 0.00 | 0.00 | 0.00 | 52 | 1015.0 |
| 20260504022608 | 57 | 258 | 2.0 | 3.0 | 0.00 | 0.00 | 0.00 | 53 | 1015.0 |
| 20260504022104 | 57 | 311 | 1.0 | 2.0 | 0.00 | 0.00 | 0.00 | 53 | 1014.9 |
| 20260504021602 | 57 | 244 | 1.0 | 1.0 | 0.00 | 0.00 | 0.00 | 53 | 1015.1 |
| 20260504021058 | 57 | 266 | 2.0 | 3.0 | 0.00 | 0.00 | 0.00 | 54 | 1014.9 |
| 20260504020555 | 57 | 294 | 3.0 | 3.0 | 0.00 | 0.00 | 0.00 | 53 | 1015.1 |
| 20260504020051 | 57 | 307 | 1.0 | 1.0 | 0.00 | 0.00 | 0.00 | 54 | 1015.2 |
| 20260504015548 | 57 | 266 | 2.0 | 2.0 | 0.00 | 0.00 | 0.00 | 54 | 1015.1 |
| 20260504015044 | 57 | 232 | 1.0 | 2.0 | 0.00 | 0.00 | 0.00 | 56 | 1014.8 |
| 20260504014540 | 57 | 346 | 2.0 | 3.0 | 0.00 | 0.00 | 0.00 | 56 | 1015.0 |
| 20260504014038 | 57 | 293 | 4.0 | 5.0 | 0.00 | 0.00 | 0.00 | 57 | 1014.8 |
| 20260504013535 | 57 | 175 | 1.0 | 2.0 | 0.00 | 0.00 | 0.00 | 58 | 1014.7 |
| 20260504013032 | 57 | 249 | 2.0 | 3.0 | 0.00 | 0.00 | 0.00 | 59 | 1014.7 |
| 20260504012530 | 58 | 342 | 1.0 | 1.0 | 0.00 | 0.00 | 0.00 | 58 | 1014.7 |
| 20260504012027 | 57 | 359 | 1.0 | 3.0 | 0.00 | 0.00 | 0.00 | 57 | 1014.6 |
| 20260504011524 | 57 | 304 | 1.0 | 1.0 | 0.00 | 0.00 | 0.00 | 57 | 1014.6 |
| 20260504011020 | 57 | 30 | 1.0 | 2.0 | 0.00 | 0.00 | 0.00 | 57 | 1014.5 |
| 20260504010516 | 57 | 196 | 1.0 | 2.0 | 0.00 | 0.00 | 0.00 | 57 | 1014.4 |
| 20260504010012 | 57 | 297 | 1.0 | 2.0 | 0.00 | 0.00 | 0.00 | 57 | 1014.4 |
| 20260504005509 | 58 | 267 | 0.0 | 0.0 | 0.00 | 0.00 | 0.00 | 57 | 1014.7 |
| 20260504005006 | 57 | 321 | 0.0 | 1.0 | 0.00 | 0.00 | 0.00 | 56 | 1014.6 |
| 20260504004504 | 57 | 320 | 1.0 | 2.0 | 0.00 | 0.00 | 0.00 | 56 | 1014.3 |
| 20260504004001 | 58 | 300 | 0.0 | 1.0 | 0.00 | 0.00 | 0.00 | 56 | 1014.5 |
| 20260504003457 | 58 | 329 | 0.0 | 0.0 | 0.00 | 0.00 | 0.00 | 56 | 1014.5 |
| 20260504002954 | 58 | 330 | 1.0 | 1.0 | 0.00 | 0.00 | 0.00 | 55 | 1014.5 |
| 20260504002451 | 59 | 264 | 1.0 | 1.0 | 0.00 | 0.00 | 0.00 | 55 | 1014.6 |
| 20260504001948 | 59 | 321 | 1.0 | 1.0 | 0.00 | 0.00 | 0.00 | 57 | 1014.6 |
| 20260504001445 | 59 | 329 | 2.0 | 2.0 | 0.00 | 0.00 | 0.00 | 56 | 1014.5 |
| 20260504000942 | 60 | 346 | 1.0 | 2.0 | 0.00 | 0.00 | 0.00 | 56 | 1014.4 |
| 20260504000439 | 60 | 331 | 1.0 | 2.0 | 0.00 | 0.00 | 0.00 | 54 | 1014.4 |
| 20260503235936 | 60 | 314 | 0.0 | 1.0 | 0.00 | 0.00 | 0.00 | 55 | 1014.7 |
| 20260503235434 | 60 | 312 | 1.0 | 1.0 | 0.00 | 0.00 | 0.00 | 56 | 1014.5 |
| 20260503234931 | 61 | 251 | 1.0 | 2.0 | 0.00 | 0.00 | 0.00 | 55 | 1014.4 |
| 20260503234429 | 61 | 321 | 3.0 | 3.0 | 0.00 | 0.00 | 0.00 | 53 | 1014.4 |
| 20260503233927 | 61 | 318 | 2.0 | 2.0 | 0.00 | 0.00 | 0.00 | 55 | 1014.4 |
| 20260503233423 | 62 | 293 | 2.0 | 2.0 | 0.00 | 0.00 | 0.00 | 54 | 1014.5 |
| 20260503232919 | 62 | 309 | 1.0 | 1.0 | 0.00 | 0.00 | 0.00 | 55 | 1014.5 |
| 20260503232416 | 62 | 303 | 1.0 | 2.0 | 0.00 | 0.00 | 0.00 | 59 | 1014.4 |
| 20260503231914 | 62 | 305 | 3.0 | 3.0 | 0.00 | 0.00 | 0.00 | 56 | 1014.4 |
| 20260503231411 | 62 | 317 | 2.0 | 2.0 | 0.00 | 0.00 | 0.00 | 56 | 1014.7 |
| 20260503230908 | 62 | 315 | 2.0 | 2.0 | 0.00 | 0.00 | 0.00 | 56 | 1014.6 |
| 20260503230404 | 63 | 303 | 1.0 | 1.0 | 0.00 | 0.00 | 0.00 | 56 | 1014.6 |
| 20260503225902 | 63 | 307 | 2.0 | 2.0 | 0.00 | 0.00 | 0.00 | 55 | 1014.4 |
| 20260503225358 | 63 | 338 | 1.0 | 2.0 | 0.00 | 0.00 | 0.00 | 53 | 1014.7 |
| 20260503224854 | 63 | 349 | 1.0 | 1.0 | 0.00 | 0.00 | 0.00 | 55 | 1014.8 |
| 20260503224351 | 63 | 306 | 3.0 | 3.0 | 0.00 | 0.00 | 0.00 | 54 | 1014.6 |
| 20260503223849 | 63 | 324 | 3.0 | 3.0 | 0.00 | 0.00 | 0.00 | 53 | 1014.6 |
| 20260503223347 | 64 | 299 | 2.0 | 2.0 | 0.00 | 0.00 | 0.00 | 56 | 1014.8 |
| 20260503222842 | 63 | 318 | 3.0 | 5.0 | 0.00 | 0.00 | 0.00 | 52 | 1014.6 |
| 20260503222341 | 64 | 291 | 2.0 | 3.0 | 0.00 | 0.00 | 0.00 | 54 | 1014.8 |
| 20260503221838 | 63 | 312 | 2.0 | 2.0 | 0.00 | 0.00 | 0.00 | 52 | 1014.8 |
| 20260503221337 | 64 | 303 | 1.0 | 1.0 | 0.00 | 0.00 | 0.00 | 55 | 1014.7 |
| 20260503220832 | 64 | 306 | 1.0 | 2.0 | 0.00 | 0.00 | 0.00 | 53 | 1014.9 |
| 20260503220330 | 64 | 310 | 3.0 | 3.0 | 0.00 | 0.00 | 0.00 | 52 | 1014.9 |
| 20260503215826 | 64 | 247 | 2.0 | 2.0 | 0.00 | 0.00 | 0.00 | 51 | 1014.7 |
| 20260503215324 | 65 | 324 | 3.0 | 5.0 | 0.00 | 0.00 | 0.00 | 53 | 1014.9 |
| 20260503214821 | 64 | 275 | 2.0 | 2.0 | 0.00 | 0.00 | 0.00 | 54 | 1015.1 |
| 20260503214318 | 65 | 266 | 2.0 | 2.0 | 0.00 | 0.00 | 0.00 | 51 | 1014.9 |
| 20260503213816 | 64 | 323 | 3.0 | 3.0 | 0.00 | 0.00 | 0.00 | 53 | 1015.0 |
| 20260503213313 | 64 | 290 | 3.0 | 5.0 | 0.00 | 0.00 | 0.00 | 53 | 1015.1 |
| 20260503212810 | 64 | 314 | 2.0 | 3.0 | 0.00 | 0.00 | 0.00 | 53 | 1014.9 |
| 20260503212308 | 64 | 299 | 5.0 | 6.0 | 0.00 | 0.00 | 0.00 | 52 | 1015.2 |
| 20260503211805 | 64 | 302 | 2.0 | 3.0 | 0.00 | 0.00 | 0.00 | 51 | 1015.2 |
| 20260503211302 | 64 | 323 | 3.0 | 3.0 | 0.00 | 0.00 | 0.00 | 51 | 1015.2 |
| 20260503210801 | 65 | 326 | 4.0 | 6.0 | 0.00 | 0.00 | 0.00 | 51 | 1015.3 |
| 20260503210259 | 65 | 268 | 3.0 | 3.0 | 0.00 | 0.00 | 0.00 | 51 | 1015.8 |
| 20260503205754 | 64 | 307 | 2.0 | 2.0 | 0.00 | 0.00 | 0.00 | 51 | 1015.5 |
| 20260503205251 | 64 | 306 | 2.0 | 2.0 | 0.00 | 0.00 | 0.00 | 51 | 1015.8 |
| 20260503204747 | 65 | 309 | 7.0 | 8.0 | 0.00 | 0.00 | 0.00 | 47 | 1015.5 |
| 20260503204245 | 66 | 305 | 1.0 | 2.0 | 0.00 | 0.00 | 0.00 | 51 | 1015.8 |
| 20260503203743 | 64 | 308 | 2.0 | 2.0 | 0.00 | 0.00 | 0.00 | 48 | 1015.9 |
| 20260503203240 | 65 | 306 | 3.0 | 3.0 | 0.00 | 0.00 | 0.00 | 48 | 1015.9 |
| 20260503202737 | 64 | 269 | 3.0 | 3.0 | 0.00 | 0.00 | 0.00 | 46 | 1016.0 |
| 20260503202235 | 64 | 305 | 2.0 | 3.0 | 0.00 | 0.00 | 0.00 | 49 | 1016.2 |
| 20260503201732 | 64 | 353 | 4.0 | 7.0 | 0.00 | 0.00 | 0.00 | 46 | 1016.2 |
| 20260503201230 | 64 | 311 | 2.0 | 3.0 | 0.00 | 0.00 | 0.00 | 47 | 1016.2 |
| 20260503200726 | 66 | 297 | 2.0 | 2.0 | 0.00 | 0.00 | 0.00 | 48 | 1016.3 |
| 20260503200222 | 65 | 325 | 2.0 | 2.0 | 0.00 | 0.00 | 0.00 | 44 | 1016.4 |
| 20260503195719 | 65 | 312 | 2.0 | 2.0 | 0.00 | 0.00 | 0.00 | 47 | 1016.5 |
| 20260503195216 | 64 | 301 | 1.0 | 2.0 | 0.00 | 0.00 | 0.00 | 45 | 1016.7 |
| 20260503194714 | 64 | 303 | 3.0 | 3.0 | 0.00 | 0.00 | 0.00 | 43 | 1016.5 |
| 20260503194209 | 63 | 313 | 1.0 | 2.0 | 0.00 | 0.00 | 0.00 | 44 | 1016.5 |
| 20260503193706 | 62 | 303 | 2.0 | 2.0 | 0.00 | 0.00 | 0.00 | 43 | 1016.9 |
| 20260503193202 | 63 | 307 | 2.0 | 2.0 | 0.00 | 0.00 | 0.00 | 47 | 1016.8 |
| 20260503192657 | 63 | 308 | 3.0 | 3.0 | 0.00 | 0.00 | 0.00 | 45 | 1016.9 |
| 20260503192153 | 62 | 321 | 3.0 | 3.0 | 0.00 | 0.00 | 0.00 | 45 | 1017.0 |
| 20260503191649 | 63 | 269 | 3.0 | 5.0 | 0.00 | 0.00 | 0.00 | 46 | 1017.0 |
| 20260503191147 | 62 | 320 | 3.0 | 3.0 | 0.00 | 0.00 | 0.00 | 43 | 1017.1 |
| 20260503190644 | 63 | 309 | 3.0 | 3.0 | 0.00 | 0.00 | 0.00 | 46 | 1017.3 |
| 20260503190141 | 64 | 32 | 3.0 | 5.0 | 0.00 | 0.00 | 0.00 | 50 | 1017.1 |
| 20260503185637 | 62 | 242 | 1.0 | 2.0 | 0.00 | 0.00 | 0.00 | 48 | 1017.3 |
| 20260503185132 | 62 | 310 | 3.0 | 3.0 | 0.00 | 0.00 | 0.00 | 48 | 1017.3 |
| 20260503184628 | 62 | 302 | 4.0 | 6.0 | 0.00 | 0.00 | 0.00 | 52 | 1017.3 |
| 20260503184125 | 61 | 197 | 1.0 | 2.0 | 0.00 | 0.00 | 0.00 | 48 | 1017.4 |
| 20260503183621 | 62 | 340 | 3.0 | 3.0 | 0.00 | 0.00 | 0.00 | 49 | 1017.5 |
| 20260503183118 | 62 | 316 | 3.0 | 5.0 | 0.00 | 0.00 | 0.00 | 50 | 1017.4 |
| 20260503182617 | 62 | 282 | 3.0 | 3.0 | 0.00 | 0.00 | 0.00 | 56 | 1017.5 |
| 20260503182115 | 61 | 305 | 2.0 | 3.0 | 0.00 | 0.00 | 0.00 | 59 | 1017.5 |
| 20260503181611 | 60 | 302 | 2.0 | 2.0 | 0.00 | 0.00 | 0.00 | 53 | 1017.5 |
| 20260503181108 | 61 | 324 | 3.0 | 3.0 | 0.00 | 0.00 | 0.00 | 55 | 1017.5 |
| 20260503180605 | 61 | 323 | 1.0 | 1.0 | 0.00 | 0.00 | 0.00 | 53 | 1017.8 |
| 20260503180103 | 62 | 336 | 3.0 | 5.0 | 0.00 | 0.00 | 0.00 | 53 | 1017.7 |
| 20260503175559 | 60 | 326 | 1.0 | 1.0 | 0.00 | 0.00 | 0.00 | 52 | 1017.8 |
| 20260503175057 | 60 | 306 | 1.0 | 1.0 | 0.00 | 0.00 | 0.00 | 53 | 1017.9 |
| 20260503174553 | 59 | 12 | 1.0 | 2.0 | 0.00 | 0.00 | 0.00 | 53 | 1017.8 |
| 20260503174050 | 62 | 315 | 2.0 | 2.0 | 0.00 | 0.00 | 0.00 | 50 | 1018.0 |
| 20260503173545 | 59 | 285 | 2.0 | 2.0 | 0.00 | 0.00 | 0.00 | 55 | 1018.1 |
| 20260503173042 | 59 | 317 | 4.0 | 5.0 | 0.00 | 0.00 | 0.00 | 56 | 1018.0 |
| 20260503172539 | 59 | 322 | 2.0 | 2.0 | 0.00 | 0.00 | 0.00 | 56 | 1018.1 |
| 20260503172036 | 59 | 317 | 3.0 | 3.0 | 0.00 | 0.00 | 0.00 | 53 | 1018.2 |
| 20260503171533 | 59 | 321 | 1.0 | 1.0 | 0.00 | 0.00 | 0.00 | 53 | 1018.3 |
| 20260503171030 | 59 | 331 | 1.0 | 1.0 | 0.00 | 0.00 | 0.00 | 48 | 1018.4 |
| 20260503170526 | 58 | 329 | 1.0 | 2.0 | 0.00 | 0.00 | 0.00 | 54 | 1018.4 |
| 20260503150919 | 51 | 320 | 3.0 | 5.0 | 0.00 | 0.00 | 0.00 | 70 | 1019.0 |
| 20260503150415 | 51 | 327 | 3.0 | 3.0 | 0.00 | 0.00 | 0.00 | 76 | 1018.8 |
| 20260503131308 | 45 | 327 | 3.0 | 5.0 | 0.00 | 0.00 | 0.00 | 87 | 1018.5 |
| 20260503130806 | 45 | 343 | 2.0 | 2.0 | 0.00 | 0.00 | 0.00 | 88 | 1018.4 |
| 20260503130303 | 44 | 332 | 2.0 | 2.0 | 0.00 | 0.00 | 0.00 | 89 | 1018.4 |
| 20260503110657 | 39 | 27 | 0.0 | 0.0 | 0.00 | 0.00 | 0.00 | 97 | 1017.7 |
| 20260503110154 | 40 | 354 | 0.0 | 0.0 | 0.00 | 0.00 | 0.00 | 96 | 1017.7 |
| 20260503100120 | 42 | 316 | 0.0 | 1.0 | 0.00 | 0.00 | 0.00 | 95 | 1017.0 |